Estación Meteorológica de la Universidad de Murcia
Estación Meteorológica de la Universidad de Murcia
Universidad de Murcia
 

Velocidad y dirección del vientoVelocidad y dirección del viento

 

Velocidad: 30,96 km/h a las 18:38:00 del día 25/09/2018
Dirección del viento: 94,5 º E Rosa de los vientos a las 18:38:00 del día 25/09/2018

Nota:
N (entre 337,6º y 22,5º), NE (entre 22,6º y 67,5º), E (entre 67,6º y 112,5º), SE (entre 112,6º y 157,5º), S (entre 157,6º y 202,5º), SW (entre 202,6º y 247,5º), W (entre 247,5º y 292,5º) y NW (entre 292,6º y 337,5º)

||Velocidad últimos meses|| ----||Dirección del viento||


Velocidad

  • 1 - 30,96 km/h del día 25/09/2018
  • 2 - 24,48 km/h del día 21/09/2018
  • 3 - 24,48 km/h del día 20/09/2018
  • 4 - 25,2 km/h del día 19/09/2018
  • 5 - 32,4 km/h del día 18/09/2018
  • 6 - 25,56 km/h del día 17/09/2018
  • 7 - 27 km/h del día 16/09/2018
  • 8 - 19,8 km/h del día 15/09/2018
  • 9 - 28,8 km/h del día 14/09/2018
  • 10 - 30,96 km/h del día 13/09/2018
  • 11 - 24,84 km/h del día 12/09/2018
  • 12 - 36,72 km/h del día 11/09/2018
  • 13 - 32,76 km/h del día 10/09/2018
  • 14 - 26,28 km/h del día 09/09/2018
  • 15 - 32,4 km/h del día 08/09/2018
  • 16 - 33,12 km/h del día 07/09/2018
  • 17 - 28,8 km/h del día 06/09/2018
  • 18 - 29,88 km/h del día 05/09/2018
  • 19 - 27,36 km/h del día 04/09/2018
  • 20 - 31,32 km/h del día 03/09/2018
  • 21 - 28,08 km/h del día 02/09/2018
  • 22 - 29,52 km/h del día 01/09/2018
  • 23 - 30,24 km/h del día 31/08/2018
  • 24 - 35,28 km/h del día 30/08/2018
  • 25 - 32,04 km/h del día 29/08/2018
  • 26 - 32,4 km/h del día 28/08/2018
  • 27 - 32,04 km/h del día 27/08/2018
  • 28 - 27,72 km/h del día 26/08/2018
  • 29 - 31,32 km/h del día 25/08/2018
  • 30 - 30,24 km/h del día 24/08/2018
  • 31 - 41,04 km/h del día 23/08/2018
  • 32 - 28,08 km/h del día 22/08/2018
  • 33 - 32,04 km/h del día 21/08/2018
  • 34 - 31,68 km/h del día 20/08/2018
  • 35 - 32,76 km/h del día 19/08/2018
  • 36 - 33,84 km/h del día 18/08/2018
  • 37 - 37,8 km/h del día 17/08/2018
  • 38 - 42,48 km/h del día 16/08/2018
  • 39 - 32,4 km/h del día 15/08/2018
  • 40 - 37,08 km/h del día 14/08/2018
  • 41 - 28,8 km/h del día 13/08/2018
  • 42 - 33,12 km/h del día 12/08/2018
  • 43 - 33,48 km/h del día 11/08/2018
  • 44 - 36,72 km/h del día 10/08/2018
  • 45 - 28,44 km/h del día 09/08/2018
  • 46 - 38,16 km/h del día 08/08/2018
  • 47 - 31,32 km/h del día 07/08/2018
  • 48 - 35,28 km/h del día 06/08/2018
  • 49 - 29,16 km/h del día 05/08/2018
  • 50 - 30,24 km/h del día 04/08/2018
  • 51 - 30,24 km/h del día 03/08/2018
  • 52 - 29,88 km/h del día 02/08/2018
  • 53 - 30,96 km/h del día 01/08/2018
  • 54 - 30,96 km/h del día 31/07/2018
  • 55 - 30,6 km/h del día 30/07/2018
  • 56 - 30,24 km/h del día 29/07/2018
  • 57 - 32,4 km/h del día 28/07/2018
  • 58 - 27,72 km/h del día 27/07/2018

||Volver al inicio de la página||


Dirección del viento

  • 1 - 1325.73 º 1325,73 del día 31/08/2018
  • 2 - 1052.94 º 1052,94 del día 31/07/2018
  • 3 - 1054.1 º 1054,1 del día 30/08/2018
  • 4 - 1446.08 º 1446,08 del día 30/07/2018
  • 5 - 1510.41 º 1510,41 del día 29/08/2018
  • 6 - 1439.21 º 1439,21 del día 29/07/2018
  • 7 - 1270.65 º 1270,65 del día 28/08/2018
  • 8 - 1881.32 º 1881,32 del día 28/07/2018
  • 9 - 926.26 º N del día 27/08/2018
  • 10 - 1137.99 º 1137,99 del día 27/07/2018
  • 11 - 788.59 º N del día 26/09/2018
  • 12 - 1087.17 º 1087,17 del día 26/08/2018
  • 13 - 1459.56 º 1459,56 del día 26/07/2018
  • 14 - 1066.43 º 1066,43 del día 25/09/2018
  • 15 - 1061.32 º 1061,32 del día 25/08/2018
  • 16 - 1982.13 º 1982,13 del día 24/08/2018
  • 17 - 1793.29 º 1793,29 del día 23/08/2018
  • 18 - 2256 º 2256 del día 22/09/2018
  • 19 - 1714.4 º 1714,4 del día 22/08/2018
  • 20 - 2163.4 º 2163,4 del día 21/09/2018
  • 21 - 1674.92 º 1674,92 del día 21/08/2018
  • 22 - 1746.78 º 1746,78 del día 20/09/2018
  • 23 - 1679.34 º 1679,34 del día 20/08/2018
  • 24 - 1482.77 º 1482,77 del día 19/09/2018
  • 25 - 1163.07 º 1163,07 del día 19/08/2018
  • 26 - 1644.83 º 1644,83 del día 18/09/2018
  • 27 - 1331.39 º 1331,39 del día 18/08/2018
  • 28 - 1429.51 º 1429,51 del día 17/09/2018
  • 29 - 1741.86 º 1741,86 del día 17/08/2018
  • 30 - 1864.17 º 1864,17 del día 16/09/2018
  • 31 - 1795.47 º 1795,47 del día 16/08/2018
  • 32 - 1809.6 º 1809,6 del día 15/09/2018
  • 33 - 1100.67 º 1100,67 del día 15/08/2018
  • 34 - 1132.48 º 1132,48 del día 14/09/2018
  • 35 - 1216.03 º 1216,03 del día 14/08/2018
  • 36 - 1576.16 º 1576,16 del día 13/09/2018
  • 37 - 1342.92 º 1342,92 del día 13/08/2018
  • 38 - 1493.72 º 1493,72 del día 12/09/2018
  • 39 - 1497.82 º 1497,82 del día 12/08/2018
  • 40 - 1542.65 º 1542,65 del día 11/09/2018
  • 41 - 1003.05 º 1003,05 del día 11/08/2018
  • 42 - 1767.12 º 1767,12 del día 10/09/2018
  • 43 - 1046.41 º 1046,41 del día 10/08/2018
  • 44 - 1901.58 º 1901,58 del día 09/09/2018
  • 45 - 1482.8 º 1482,8 del día 09/08/2018
  • 46 - 2239.75 º 2239,75 del día 08/09/2018
  • 47 - 1095.78 º 1095,78 del día 08/08/2018
  • 48 - 927.68 º N del día 07/09/2018
  • 49 - 993.46 º N del día 07/08/2018
  • 50 - 1764.28 º 1764,28 del día 06/09/2018
  • 51 - 1595.44 º 1595,44 del día 06/08/2018
  • 52 - 1723.2 º 1723,2 del día 05/09/2018
  • 53 - 1650.7 º 1650,7 del día 05/08/2018
  • 54 - 1789.1 º 1789,1 del día 04/09/2018
  • 55 - 1489.33 º 1489,33 del día 04/08/2018
  • 56 - 1258.63 º 1258,63 del día 03/09/2018
  • 57 - 1706.22 º 1706,22 del día 03/08/2018
  • 58 - 1222.74 º 1222,74 del día 02/09/2018
  • 59 - 1495.03 º 1495,03 del día 02/08/2018
  • 60 - 1179.17 º 1179,17 del día 01/09/2018
  • 61 - 1141.07 º 1141,07 del día 01/08/2018

|| Temperatura Ambiente|| Humedad relativa|| Precipitación|| Radiación Solar Global y PAR|| Temperatura y humedad del suelo|| Presión atmosférica|| Más información|| Volver a la página principal|| Volver al inicio de la página||


Estación Meteorológica de la Universidad de Murcia
http://estacion.um.es/
Informacion actualizada a: 26/09/2018 a las 02:29:00